sensor_id;sensor_type;location;lat;lon;timestamp;pressure;altitude;pressure_sealevel;temperature;humidity
55317;BME280;41178;48.956;8.130;2022-12-16T00:03:48;98808.50;;;-4.13;57.08
55317;BME280;41178;48.956;8.130;2022-12-16T00:08:52;98771.44;;;-3.38;56.17
55317;BME280;41178;48.956;8.130;2022-12-16T00:13:55;98817.53;;;-3.82;56.55
55317;BME280;41178;48.956;8.130;2022-12-16T00:18:56;98794.41;;;-3.42;55.57
55317;BME280;41178;48.956;8.130;2022-12-16T00:23:58;98843.69;;;-4.06;56.88
55317;BME280;41178;48.956;8.130;2022-12-16T00:29:00;98828.25;;;-3.74;55.96
55317;BME280;41178;48.956;8.130;2022-12-16T00:34:01;98831.13;;;-4.01;57.34
55317;BME280;41178;48.956;8.130;2022-12-16T00:39:03;98834.38;;;-3.86;56.60
55317;BME280;41178;48.956;8.130;2022-12-16T00:44:05;98897.56;;;-4.91;57.10
55317;BME280;41178;48.956;8.130;2022-12-16T00:49:06;98898.38;;;-4.77;57.11
55317;BME280;41178;48.956;8.130;2022-12-16T00:54:08;98847.22;;;-3.83;54.90
55317;BME280;41178;48.956;8.130;2022-12-16T00:59:10;98819.63;;;-3.18;54.11
55317;BME280;41178;48.956;8.130;2022-12-16T01:04:11;98907.59;;;-4.10;54.33
55317;BME280;41178;48.956;8.130;2022-12-16T01:09:13;98845.75;;;-3.41;54.00
55317;BME280;41178;48.956;8.130;2022-12-16T01:14:15;98845.91;;;-2.97;52.66
55317;BME280;41178;48.956;8.130;2022-12-16T01:19:16;98892.69;;;-3.62;53.07
55317;BME280;41178;48.956;8.130;2022-12-16T01:24:18;98878.59;;;-3.36;52.98
55317;BME280;41178;48.956;8.130;2022-12-16T01:29:19;98953.41;;;-4.18;53.38
55317;BME280;41178;48.956;8.130;2022-12-16T01:34:21;98891.59;;;-3.59;53.87
55317;BME280;41178;48.956;8.130;2022-12-16T01:39:24;98877.91;;;-3.16;52.75
55317;BME280;41178;48.956;8.130;2022-12-16T01:44:27;98902.59;;;-3.43;52.69
55317;BME280;41178;48.956;8.130;2022-12-16T01:49:33;98862.22;;;-2.82;52.18
55317;BME280;41178;48.956;8.130;2022-12-16T01:54:46;98923.38;;;-3.52;52.60
55317;BME280;41178;48.956;8.130;2022-12-16T01:59:50;98930.81;;;-3.70;53.15
55317;BME280;41178;48.956;8.130;2022-12-16T02:04:54;99000.09;;;-4.76;53.61
55317;BME280;41178;48.956;8.130;2022-12-16T02:10:15;98935.50;;;-3.51;52.76
55317;BME280;41178;48.956;8.130;2022-12-16T02:31:43;99019.94;;;-4.60;53.50
55317;BME280;41178;48.956;8.130;2022-12-16T02:37:19;98980.69;;;-3.49;52.32
55317;BME280;41178;48.956;8.130;2022-12-16T02:47:28;99003.19;;;-3.71;52.58
55317;BME280;41178;48.956;8.130;2022-12-16T02:52:32;98983.59;;;-3.41;52.19
55317;BME280;41178;48.956;8.130;2022-12-16T02:57:57;98997.97;;;-3.35;51.78
55317;BME280;41178;48.956;8.130;2022-12-16T03:03:07;98981.16;;;-3.09;51.86
55317;BME280;41178;48.956;8.130;2022-12-16T03:08:17;98969.34;;;-2.79;51.53
55317;BME280;41178;48.956;8.130;2022-12-16T03:13:20;99008.66;;;-3.50;52.19
55317;BME280;41178;48.956;8.130;2022-12-16T03:18:23;99038.53;;;-3.65;51.77
55317;BME280;41178;48.956;8.130;2022-12-16T03:23:32;99027.34;;;-3.43;52.00
55317;BME280;41178;48.956;8.130;2022-12-16T03:29:01;99024.88;;;-3.33;51.56
55317;BME280;41178;48.956;8.130;2022-12-16T03:34:16;99100.06;;;-4.48;52.62
55317;BME280;41178;48.956;8.130;2022-12-16T03:39:22;99040.03;;;-3.50;51.86
55317;BME280;41178;48.956;8.130;2022-12-16T03:44:25;99067.66;;;-3.83;52.58
55317;BME280;41178;48.956;8.130;2022-12-16T03:49:27;99042.63;;;-3.26;51.44
55317;BME280;41178;48.956;8.130;2022-12-16T03:54:28;99075.97;;;-3.89;52.54
55317;BME280;41178;48.956;8.130;2022-12-16T03:59:30;99104.19;;;-3.94;51.99
55317;BME280;41178;48.956;8.130;2022-12-16T04:04:31;99082.94;;;-3.89;52.98
55317;BME280;41178;48.956;8.130;2022-12-16T04:09:33;99054.94;;;-3.15;51.16
55317;BME280;41178;48.956;8.130;2022-12-16T04:14:35;99110.66;;;-3.87;51.65
55317;BME280;41178;48.956;8.130;2022-12-16T04:19:55;99086.00;;;-3.34;51.15
55317;BME280;41178;48.956;8.130;2022-12-16T04:25:19;99086.28;;;-3.02;49.93
55317;BME280;41178;48.956;8.130;2022-12-16T04:30:21;99118.13;;;-3.56;50.96
55317;BME280;41178;48.956;8.130;2022-12-16T04:35:23;99135.94;;;-3.74;51.50
55317;BME280;41178;48.956;8.130;2022-12-16T04:40:43;99167.03;;;-4.21;51.96
55317;BME280;41178;48.956;8.130;2022-12-16T04:46:07;99190.41;;;-4.98;52.85
55317;BME280;41178;48.956;8.130;2022-12-16T04:51:27;99116.06;;;-3.16;50.33
55317;BME280;41178;48.956;8.130;2022-12-16T04:56:47;99189.63;;;-4.07;50.67
55317;BME280;41178;48.956;8.130;2022-12-16T05:02:08;99209.66;;;-4.86;52.82
55317;BME280;41178;48.956;8.130;2022-12-16T05:07:28;99210.53;;;-4.73;53.01
55317;BME280;41178;48.956;8.130;2022-12-16T05:12:48;99197.34;;;-4.19;51.73
55317;BME280;41178;48.956;8.130;2022-12-16T05:18:13;99210.44;;;-4.72;52.57
55317;BME280;41178;48.956;8.130;2022-12-16T05:23:34;99183.56;;;-4.21;52.71
55317;BME280;41178;48.956;8.130;2022-12-16T05:28:54;99195.25;;;-3.88;51.04
55317;BME280;41178;48.956;8.130;2022-12-16T05:34:14;99203.81;;;-3.86;51.30
55317;BME280;41178;48.956;8.130;2022-12-16T05:39:34;99195.16;;;-3.73;51.13
55317;BME280;41178;48.956;8.130;2022-12-16T05:44:55;99257.84;;;-4.92;52.70
55317;BME280;41178;48.956;8.130;2022-12-16T05:50:15;99272.25;;;-4.72;52.15
55317;BME280;41178;48.956;8.130;2022-12-16T05:55:35;99266.91;;;-4.43;51.23
55317;BME280;41178;48.956;8.130;2022-12-16T06:00:56;99251.50;;;-4.08;51.31
55317;BME280;41178;48.956;8.130;2022-12-16T06:06:16;99248.69;;;-3.66;50.09
55317;BME280;41178;48.956;8.130;2022-12-16T06:11:36;99297.13;;;-4.66;51.39
55317;BME280;41178;48.956;8.130;2022-12-16T06:16:56;99283.97;;;-4.38;51.63
55317;BME280;41178;48.956;8.130;2022-12-16T06:22:17;99335.31;;;-4.93;51.41
55317;BME280;41178;48.956;8.130;2022-12-16T06:27:37;99309.56;;;-4.70;52.03
55317;BME280;41178;48.956;8.130;2022-12-16T06:32:57;99330.28;;;-4.81;51.76
55317;BME280;41178;48.956;8.130;2022-12-16T06:38:21;99348.94;;;-5.02;51.62
55317;BME280;41178;48.956;8.130;2022-12-16T06:43:42;99320.38;;;-4.22;50.88
55317;BME280;41178;48.956;8.130;2022-12-16T06:49:02;99334.47;;;-4.24;50.42
55317;BME280;41178;48.956;8.130;2022-12-16T06:54:23;99336.50;;;-4.42;51.40
55317;BME280;41178;48.956;8.130;2022-12-16T06:59:43;99361.97;;;-4.73;51.62
55317;BME280;41178;48.956;8.130;2022-12-16T07:05:03;99319.59;;;-3.71;50.04
55317;BME280;41178;48.956;8.130;2022-12-16T07:10:23;99431.75;;;-5.79;52.64
55317;BME280;41178;48.956;8.130;2022-12-16T07:15:44;99390.41;;;-4.97;52.75
55317;BME280;41178;48.956;8.130;2022-12-16T07:21:05;99446.97;;;-5.71;53.25
55317;BME280;41178;48.956;8.130;2022-12-16T07:26:25;99404.63;;;-5.46;53.72
55317;BME280;41178;48.956;8.130;2022-12-16T07:31:45;99434.31;;;-5.18;52.65
55317;BME280;41178;48.956;8.130;2022-12-16T07:37:06;99430.31;;;-5.24;53.10
55317;BME280;41178;48.956;8.130;2022-12-16T07:42:26;99428.63;;;-4.67;52.07
55317;BME280;41178;48.956;8.130;2022-12-16T07:47:47;99453.88;;;-5.25;53.18
55317;BME280;41178;48.956;8.130;2022-12-16T07:53:09;99413.31;;;-4.59;52.48
55317;BME280;41178;48.956;8.130;2022-12-16T07:58:31;99417.31;;;-4.54;52.34
55317;BME280;41178;48.956;8.130;2022-12-16T08:03:52;99396.41;;;-4.12;51.97
55317;BME280;41178;48.956;8.130;2022-12-16T08:09:12;99461.16;;;-4.87;52.34
55317;BME280;41178;48.956;8.130;2022-12-16T08:14:43;99479.13;;;-4.97;52.61
55317;BME280;41178;48.956;8.130;2022-12-16T08:20:04;99410.06;;;-3.94;51.58
55317;BME280;41178;48.956;8.130;2022-12-16T08:25:24;99455.34;;;-4.08;50.27
55317;BME280;41178;48.956;8.130;2022-12-16T08:30:49;99452.16;;;-4.26;51.31
55317;BME280;41178;48.956;8.130;2022-12-16T08:36:09;99411.44;;;-2.97;50.02
55317;BME280;41178;48.956;8.130;2022-12-16T08:41:31;99459.31;;;-3.48;50.09
55317;BME280;41178;48.956;8.130;2022-12-16T08:46:51;99413.50;;;-2.76;50.03
55317;BME280;41178;48.956;8.130;2022-12-16T08:52:11;99424.84;;;-2.76;49.84
55317;BME280;41178;48.956;8.130;2022-12-16T08:57:32;99420.19;;;-1.98;47.89
55317;BME280;41178;48.956;8.130;2022-12-16T09:02:58;99495.69;;;-3.17;49.82
55317;BME280;41178;48.956;8.130;2022-12-16T09:08:19;99492.31;;;-2.92;49.65
55317;BME280;41178;48.956;8.130;2022-12-16T09:13:39;99486.09;;;-2.53;49.05
55317;BME280;41178;48.956;8.130;2022-12-16T09:18:59;99489.03;;;-2.70;50.36
55317;BME280;41178;48.956;8.130;2022-12-16T09:24:20;99540.38;;;-2.80;48.54
55317;BME280;41178;48.956;8.130;2022-12-16T09:29:40;99530.53;;;-2.77;49.49
55317;BME280;41178;48.956;8.130;2022-12-16T09:35:00;99530.13;;;-2.83;50.05
55317;BME280;41178;48.956;8.130;2022-12-16T09:40:20;99527.81;;;-2.75;50.11
55317;BME280;41178;48.956;8.130;2022-12-16T09:51:29;99473.25;;;-1.70;48.38
55317;BME280;41178;48.956;8.130;2022-12-16T09:56:51;99601.78;;;-3.39;50.13
55317;BME280;41178;48.956;8.130;2022-12-16T10:02:13;99593.75;;;-3.36;50.37
55317;BME280;41178;48.956;8.130;2022-12-16T10:07:38;99527.63;;;-2.72;50.17
55317;BME280;41178;48.956;8.130;2022-12-16T10:18:49;99595.75;;;-3.54;51.30
55317;BME280;41178;48.956;8.130;2022-12-16T10:24:29;99519.53;;;-2.82;50.68
55317;BME280;41178;48.956;8.130;2022-12-16T10:29:52;99541.75;;;-2.75;49.60
55317;BME280;41178;48.956;8.130;2022-12-16T10:35:20;99511.66;;;-2.43;49.53
55317;BME280;41178;48.956;8.130;2022-12-16T10:40:41;99630.97;;;-4.16;51.95
55317;BME280;41178;48.956;8.130;2022-12-16T10:46:06;99626.94;;;-4.07;51.75
55317;BME280;41178;48.956;8.130;2022-12-16T10:51:31;99587.13;;;-3.42;50.78
55317;BME280;41178;48.956;8.130;2022-12-16T10:57:09;99503.13;;;-2.34;50.05
55317;BME280;41178;48.956;8.130;2022-12-16T11:06:37;99565.75;;;-3.75;52.52
55317;BME280;41178;48.956;8.130;2022-12-16T11:12:27;99529.00;;;-3.07;51.43
55317;BME280;41178;48.956;8.130;2022-12-16T11:18:02;99576.50;;;-3.94;52.66
55317;BME280;41178;48.956;8.130;2022-12-16T11:23:25;99491.84;;;-2.48;50.87
55317;BME280;41178;48.956;8.130;2022-12-16T11:28:45;99521.31;;;-2.70;51.29
55317;BME280;41178;48.956;8.130;2022-12-16T11:34:07;99599.38;;;-3.84;51.04
55317;BME280;41178;48.956;8.130;2022-12-16T11:39:30;99491.16;;;-2.13;50.27
55317;BME280;41178;48.956;8.130;2022-12-16T11:44:56;99530.88;;;-2.56;48.98
55317;BME280;41178;48.956;8.130;2022-12-16T11:50:17;99579.22;;;-3.00;49.86
55317;BME280;41178;48.956;8.130;2022-12-16T11:55:41;99540.59;;;-2.71;50.24
55317;BME280;41178;48.956;8.130;2022-12-16T12:01:20;99639.53;;;-3.70;50.34
55317;BME280;41178;48.956;8.130;2022-12-16T12:12:37;99595.25;;;-2.92;49.04
55317;BME280;41178;48.956;8.130;2022-12-16T12:24:51;99658.75;;;-3.86;51.25
55317;BME280;41178;48.956;8.130;2022-12-16T12:30:10;99542.06;;;-1.91;48.72
55317;BME280;41178;48.956;8.130;2022-12-16T12:41:26;99597.31;;;-2.57;48.72
55317;BME280;41178;48.956;8.130;2022-12-16T12:46:59;99529.69;;;-1.41;48.39
55317;BME280;41178;48.956;8.130;2022-12-16T12:52:53;99636.91;;;-2.61;49.15
55317;BME280;41178;48.956;8.130;2022-12-16T12:58:16;99601.72;;;-2.32;49.65
55317;BME280;41178;48.956;8.130;2022-12-16T13:03:41;99592.94;;;-1.81;48.41
55317;BME280;41178;48.956;8.130;2022-12-16T13:09:25;99619.94;;;-2.04;48.71
55317;BME280;41178;48.956;8.130;2022-12-16T13:25:54;99687.50;;;-2.74;49.90
55317;BME280;41178;48.956;8.130;2022-12-16T13:31:23;99668.69;;;-2.53;49.14
55317;BME280;41178;48.956;8.130;2022-12-16T13:36:52;99679.56;;;-2.59;49.14
55317;BME280;41178;48.956;8.130;2022-12-16T13:48:02;99712.19;;;-2.78;49.68
55317;BME280;41178;48.956;8.130;2022-12-16T13:53:29;99729.44;;;-2.88;49.91
55317;BME280;41178;48.956;8.130;2022-12-16T13:58:59;99737.56;;;-2.78;49.37
55317;BME280;41178;48.956;8.130;2022-12-16T14:04:32;99627.44;;;-1.13;48.86
55317;BME280;41178;48.956;8.130;2022-12-16T14:09:53;99629.81;;;-0.86;47.90
55317;BME280;41178;48.956;8.130;2022-12-16T14:20:58;99732.38;;;-2.00;48.85
55317;BME280;41178;48.956;8.130;2022-12-16T14:26:19;99757.53;;;-2.23;48.86
55317;BME280;41178;48.956;8.130;2022-12-16T14:31:42;99763.19;;;-2.16;48.45
55317;BME280;41178;48.956;8.130;2022-12-16T14:42:44;99758.63;;;-2.00;48.59
55317;BME280;41178;48.956;8.130;2022-12-16T14:48:18;99774.97;;;-1.96;48.67
55317;BME280;41178;48.956;8.130;2022-12-16T14:53:49;99680.63;;;-0.38;46.53
55317;BME280;41178;48.956;8.130;2022-12-16T14:59:19;99748.28;;;-1.26;47.49
55317;BME280;41178;48.956;8.130;2022-12-16T15:04:39;99731.34;;;-0.85;46.57
55317;BME280;41178;48.956;8.130;2022-12-16T15:10:00;99753.19;;;-1.21;47.16
55317;BME280;41178;48.956;8.130;2022-12-16T15:15:32;99776.66;;;-1.31;47.08
55317;BME280;41178;48.956;8.130;2022-12-16T15:21:13;99824.50;;;-1.79;47.71
55317;BME280;41178;48.956;8.130;2022-12-16T15:26:34;99812.66;;;-1.33;47.79
55317;BME280;41178;48.956;8.130;2022-12-16T15:31:54;99845.91;;;-1.98;48.42
55317;BME280;41178;48.956;8.130;2022-12-16T15:37:19;99794.00;;;-0.91;46.70
55317;BME280;41178;48.956;8.130;2022-12-16T15:42:40;99859.06;;;-1.72;47.57
55317;BME280;41178;48.956;8.130;2022-12-16T15:48:11;99864.41;;;-1.86;47.90
55317;BME280;41178;48.956;8.130;2022-12-16T15:53:35;99836.59;;;-1.12;47.03
55317;BME280;41178;48.956;8.130;2022-12-16T16:04:44;99883.09;;;-1.65;48.69
55317;BME280;41178;48.956;8.130;2022-12-16T16:15:27;99924.06;;;-2.44;49.55
55317;BME280;41178;48.956;8.130;2022-12-16T16:20:49;99936.69;;;-2.51;50.75
55317;BME280;41178;48.956;8.130;2022-12-16T16:26:11;99948.59;;;-2.60;50.61
55317;BME280;41178;48.956;8.130;2022-12-16T16:31:32;99961.22;;;-3.10;51.72
55317;BME280;41178;48.956;8.130;2022-12-16T16:37:13;99949.97;;;-3.12;52.14
55317;BME280;41178;48.956;8.130;2022-12-16T16:42:34;99958.06;;;-3.31;52.42
55317;BME280;41178;48.956;8.130;2022-12-16T16:48:10;99914.75;;;-2.36;51.20
55317;BME280;41178;48.956;8.130;2022-12-16T16:53:32;99916.16;;;-2.30;50.03
55317;BME280;41178;48.956;8.130;2022-12-16T16:58:52;99885.44;;;-1.61;49.65
55317;BME280;41178;48.956;8.130;2022-12-16T17:04:12;99894.81;;;-1.84;50.27
55317;BME280;41178;48.956;8.130;2022-12-16T17:09:32;99860.03;;;-1.22;49.26
55317;BME280;41178;48.956;8.130;2022-12-16T17:14:52;99960.22;;;-2.78;50.96
55317;BME280;41178;48.956;8.130;2022-12-16T17:20:13;99902.59;;;-1.29;49.42
55317;BME280;41178;48.956;8.130;2022-12-16T17:25:34;99894.06;;;-1.20;48.90
55317;BME280;41178;48.956;8.130;2022-12-16T17:30:57;99879.81;;;-0.79;48.64
55317;BME280;41178;48.956;8.130;2022-12-16T17:36:18;99960.94;;;-1.79;49.79
55317;BME280;41178;48.956;8.130;2022-12-16T17:41:38;99912.00;;;-1.01;48.63
55317;BME280;41178;48.956;8.130;2022-12-16T17:46:58;99936.81;;;-1.18;48.75
55317;BME280;41178;48.956;8.130;2022-12-16T17:52:19;99915.16;;;-0.70;48.16
55317;BME280;41178;48.956;8.130;2022-12-16T17:57:39;99953.63;;;-1.21;49.05
55317;BME280;41178;48.956;8.130;2022-12-16T18:02:59;100000.03;;;-1.88;49.74
55317;BME280;41178;48.956;8.130;2022-12-16T18:08:20;100002.09;;;-1.79;49.82
55317;BME280;41178;48.956;8.130;2022-12-16T18:13:40;100014.34;;;-2.07;49.95
55317;BME280;41178;48.956;8.130;2022-12-16T18:19:00;100031.53;;;-2.59;50.45
55317;BME280;41178;48.956;8.130;2022-12-16T18:24:21;100022.50;;;-2.12;50.09
55317;BME280;41178;48.956;8.130;2022-12-16T18:29:48;99943.94;;;-0.56;47.61
55317;BME280;41178;48.956;8.130;2022-12-16T18:35:08;100027.25;;;-2.04;49.31
55317;BME280;41178;48.956;8.130;2022-12-16T18:40:28;100041.31;;;-2.19;49.87
55317;BME280;41178;48.956;8.130;2022-12-16T18:45:53;100032.59;;;-2.05;49.56
55317;BME280;41178;48.956;8.130;2022-12-16T18:51:14;100032.50;;;-1.62;49.05
55317;BME280;41178;48.956;8.130;2022-12-16T18:56:34;100050.84;;;-2.04;49.24
55317;BME280;41178;48.956;8.130;2022-12-16T19:01:54;100069.31;;;-2.63;50.83
55317;BME280;41178;48.956;8.130;2022-12-16T19:07:15;100046.69;;;-1.79;49.35
55317;BME280;41178;48.956;8.130;2022-12-16T19:12:35;100085.59;;;-2.58;50.08
55317;BME280;41178;48.956;8.130;2022-12-16T19:17:56;100082.97;;;-2.72;51.03
55317;BME280;41178;48.956;8.130;2022-12-16T19:23:16;100085.34;;;-2.53;50.29
55317;BME280;41178;48.956;8.130;2022-12-16T19:28:37;100096.38;;;-3.39;51.61
55317;BME280;41178;48.956;8.130;2022-12-16T19:34:00;100097.13;;;-3.37;51.56
55317;BME280;41178;48.956;8.130;2022-12-16T19:39:21;100088.53;;;-3.39;51.49
55317;BME280;41178;48.956;8.130;2022-12-16T19:44:41;100086.56;;;-2.59;50.36
55317;BME280;41178;48.956;8.130;2022-12-16T19:50:02;100092.06;;;-2.63;49.80
55317;BME280;41178;48.956;8.130;2022-12-16T19:55:22;100116.56;;;-3.41;50.86
55317;BME280;41178;48.956;8.130;2022-12-16T20:00:42;100107.25;;;-3.94;52.27
55317;BME280;41178;48.956;8.130;2022-12-16T20:06:04;100107.94;;;-3.91;52.65
55317;BME280;41178;48.956;8.130;2022-12-16T20:11:25;100088.44;;;-3.22;52.03
55317;BME280;41178;48.956;8.130;2022-12-16T20:16:45;100109.91;;;-3.79;52.13
55317;BME280;41178;48.956;8.130;2022-12-16T20:22:06;100111.69;;;-3.63;52.22
55317;BME280;41178;48.956;8.130;2022-12-16T20:27:26;100106.47;;;-3.17;50.93
55317;BME280;41178;48.956;8.130;2022-12-16T20:32:46;100120.44;;;-3.64;51.59
55317;BME280;41178;48.956;8.130;2022-12-16T20:38:07;100114.09;;;-3.28;51.54
55317;BME280;41178;48.956;8.130;2022-12-16T20:43:27;100121.88;;;-3.43;51.65
55317;BME280;41178;48.956;8.130;2022-12-16T20:48:48;100141.78;;;-4.21;53.29
55317;BME280;41178;48.956;8.130;2022-12-16T20:54:11;100094.06;;;-2.83;51.25
55317;BME280;41178;48.956;8.130;2022-12-16T20:59:33;100125.88;;;-2.89;50.24
55317;BME280;41178;48.956;8.130;2022-12-16T21:05:02;100145.91;;;-3.20;50.28
55317;BME280;41178;48.956;8.130;2022-12-16T21:10:23;100176.06;;;-4.10;52.43
55317;BME280;41178;48.956;8.130;2022-12-16T21:15:43;100180.16;;;-4.57;53.67
55317;BME280;41178;48.956;8.130;2022-12-16T21:21:04;100144.84;;;-3.64;52.09
55317;BME280;41178;48.956;8.130;2022-12-16T21:26:24;100168.34;;;-3.80;51.70
55317;BME280;41178;48.956;8.130;2022-12-16T21:31:45;100159.94;;;-3.21;50.31
55317;BME280;41178;48.956;8.130;2022-12-16T21:37:05;100191.09;;;-4.31;52.66
55317;BME280;41178;48.956;8.130;2022-12-16T21:42:25;100204.47;;;-4.55;53.33
55317;BME280;41178;48.956;8.130;2022-12-16T21:47:45;100198.59;;;-4.25;53.39
55317;BME280;41178;48.956;8.130;2022-12-16T21:53:05;100203.69;;;-4.39;53.69
55317;BME280;41178;48.956;8.130;2022-12-16T21:58:26;100202.88;;;-4.06;52.84
55317;BME280;41178;48.956;8.130;2022-12-16T22:03:46;100229.19;;;-4.27;53.00
55317;BME280;41178;48.956;8.130;2022-12-16T22:09:06;100211.00;;;-3.95;52.83
55317;BME280;41178;48.956;8.130;2022-12-16T22:14:27;100240.88;;;-4.34;53.32
55317;BME280;41178;48.956;8.130;2022-12-16T22:19:47;100233.22;;;-3.86;52.47
55317;BME280;41178;48.956;8.130;2022-12-16T22:25:07;100237.94;;;-4.10;52.38
55317;BME280;41178;48.956;8.130;2022-12-16T22:30:28;100225.44;;;-3.70;51.87
55317;BME280;41178;48.956;8.130;2022-12-16T22:35:48;100238.09;;;-4.13;52.53
55317;BME280;41178;48.956;8.130;2022-12-16T22:41:08;100254.84;;;-4.70;53.35
55317;BME280;41178;48.956;8.130;2022-12-16T22:46:29;100241.03;;;-4.37;53.21
55317;BME280;41178;48.956;8.130;2022-12-16T22:52:00;100190.31;;;-2.87;50.40
55317;BME280;41178;48.956;8.130;2022-12-16T22:57:20;100214.59;;;-3.15;50.26
55317;BME280;41178;48.956;8.130;2022-12-16T23:02:40;100270.22;;;-4.11;50.91
55317;BME280;41178;48.956;8.130;2022-12-16T23:08:00;100257.75;;;-4.59;52.42
55317;BME280;41178;48.956;8.130;2022-12-16T23:13:21;100254.09;;;-4.02;51.96
55317;BME280;41178;48.956;8.130;2022-12-16T23:18:43;100254.47;;;-4.10;52.42
55317;BME280;41178;48.956;8.130;2022-12-16T23:24:04;100271.44;;;-4.01;52.01
55317;BME280;41178;48.956;8.130;2022-12-16T23:29:24;100279.69;;;-4.44;53.17
55317;BME280;41178;48.956;8.130;2022-12-16T23:34:45;100272.84;;;-4.29;52.47
55317;BME280;41178;48.956;8.130;2022-12-16T23:40:05;100265.66;;;-4.78;54.12
55317;BME280;41178;48.956;8.130;2022-12-16T23:45:26;100231.84;;;-3.60;52.35
55317;BME280;41178;48.956;8.130;2022-12-16T23:50:46;100252.34;;;-3.52;51.79
55317;BME280;41178;48.956;8.130;2022-12-16T23:56:07;100298.78;;;-4.61;52.80
